Time;durP1;ratioP1;P1;durP2;ratioP2;P2;SDS_P1;SDS_P2;PMS_P1;PMS_P2;Temp;Humidity;BMP_temperature;BMP_pressure;BME280_temperature;BME280_humidity;BME280_pressure;Samples;Min_cycle;Max_cycle;Signal;HPM_P1;HPM_P2
2022/03/29 00:02:01;;;;;;;39.78;20.42;;;7.00;99.90;;;;;;4812985;29;20052;-89
2022/03/29 00:04:26;;;;;;;33.75;20.05;;;7.00;99.90;;;;;;4812718;29;20058;-91
2022/03/29 00:06:53;;;;;;;40.80;20.15;;;6.90;99.90;;;;;;4812263;29;20033;-91
2022/03/29 00:09:19;;;;;;;37.53;18.92;;;6.90;99.90;;;;;;4811280;29;20100;-93
2022/03/29 00:11:45;;;;;;;30.70;17.70;;;6.80;99.90;;;;;;4810965;29;20026;-91
2022/03/29 00:14:12;;;;;;;30.85;16.42;;;6.80;99.90;;;;;;4811129;29;20071;-91
2022/03/29 00:16:38;;;;;;;29.08;16.25;;;6.70;99.90;;;;;;4811152;29;20192;-92
2022/03/29 00:19:04;;;;;;;33.88;18.08;;;6.60;99.90;;;;;;4811360;29;20033;-91
2022/03/29 00:21:31;;;;;;;32.13;16.55;;;6.60;99.90;;;;;;4811673;29;20497;-91
2022/03/29 00:23:56;;;;;;;28.30;15.20;;;6.60;99.90;;;;;;4811107;29;20043;-92
2022/03/29 00:26:22;;;;;;;31.58;16.50;;;6.50;99.90;;;;;;4811045;29;20039;-91
2022/03/29 00:28:48;;;;;;;33.13;17.25;;;6.40;99.90;;;;;;4810723;29;20472;-91
2022/03/29 00:31:19;;;;;;;35.97;18.30;;;6.40;99.90;;;;;;4811211;29;20037;-90
2022/03/29 00:33:47;;;;;;;39.05;20.15;;;6.40;99.90;;;;;;4810830;29;20117;-91
2022/03/29 00:36:13;;;;;;;33.10;18.08;;;6.40;99.90;;;;;;4810567;29;20126;-91
2022/03/29 00:38:38;;;;;;;32.88;16.02;;;6.30;99.90;;;;;;4810952;29;20140;-90
2022/03/29 00:41:04;;;;;;;30.58;16.02;;;6.30;99.90;;;;;;4810600;29;20038;-93
2022/03/29 00:43:30;;;;;;;32.80;16.77;;;6.30;99.90;;;;;;4811372;29;20031;-92
2022/03/29 00:45:56;;;;;;;34.17;18.38;;;6.30;99.90;;;;;;4819493;29;20034;-92
2022/03/29 00:48:23;;;;;;;32.20;17.60;;;6.30;99.90;;;;;;4818773;29;20031;-90
2022/03/29 00:50:49;;;;;;;33.60;17.13;;;6.20;99.90;;;;;;4811247;29;20027;-91
2022/03/29 00:53:17;;;;;;;31.17;16.50;;;6.10;99.90;;;;;;4811194;29;20041;-91
2022/03/29 00:55:44;;;;;;;35.45;18.05;;;6.10;99.90;;;;;;4813082;29;20097;-90
2022/03/29 00:58:12;;;;;;;37.60;18.63;;;6.10;99.90;;;;;;4832261;29;20034;-91
2022/03/29 01:00:38;;;;;;;31.85;16.70;;;6.10;99.90;;;;;;4835476;29;20065;-92
2022/03/29 01:03:04;;;;;;;36.88;20.13;;;6.00;99.90;;;;;;4821205;29;20034;-90
2022/03/29 01:05:31;;;;;;;39.80;21.27;;;6.00;99.90;;;;;;4812466;29;20461;-92
2022/03/29 01:07:57;;;;;;;29.77;16.38;;;5.90;99.90;;;;;;4810006;29;20126;-91
2022/03/29 01:10:24;;;;;;;43.53;21.83;;;5.90;99.90;;;;;;4809687;29;20058;-91
2022/03/29 01:12:54;;;;;;;44.03;22.33;;;5.90;99.90;;;;;;4809438;29;20489;-92
2022/03/29 01:15:22;;;;;;;39.60;21.13;;;5.90;99.90;;;;;;4809653;29;20539;-91
2022/03/29 01:17:49;;;;;;;42.30;21.77;;;5.90;99.90;;;;;;4809821;29;20085;-91
2022/03/29 01:20:27;;;;;;;43.75;21.20;;;5.80;99.90;;;;;;4809185;29;20030;-91
2022/03/29 01:22:54;;;;;;;38.53;19.20;;;5.80;99.90;;;;;;4810236;29;20552;-93
2022/03/29 01:25:25;;;;;;;39.17;19.70;;;5.80;99.90;;;;;;4817281;29;20043;-91
2022/03/29 01:27:53;;;;;;;39.58;21.15;;;5.80;99.90;;;;;;4815549;29;20031;-92
2022/03/29 01:30:20;;;;;;;41.90;21.05;;;5.80;99.90;;;;;;4810150;29;20055;-92
2022/03/29 01:32:50;;;;;;;33.55;17.58;;;5.80;99.90;;;;;;4810850;29;20030;-93
2022/03/29 01:35:18;;;;;;;34.28;18.25;;;5.80;99.90;;;;;;4811214;29;20038;-92
2022/03/29 01:37:44;;;;;;;36.10;19.65;;;5.80;99.90;;;;;;4811743;29;20091;-92
2022/03/29 01:40:12;;;;;;;37.75;19.35;;;5.70;99.90;;;;;;4821870;29;20034;-91
2022/03/29 01:42:41;;;;;;;35.63;19.00;;;5.70;99.90;;;;;;4828789;29;20030;-92
2022/03/29 01:45:09;;;;;;;43.35;19.60;;;5.60;99.90;;;;;;4806503;29;20392;-93
2022/03/29 01:47:35;;;;;;;39.22;21.15;;;5.60;99.90;;;;;;4834562;29;20042;-92
2022/03/29 01:50:01;;;;;;;35.58;18.52;;;5.60;99.90;;;;;;4816002;29;20130;-92
2022/03/29 01:52:27;;;;;;;34.63;18.02;;;5.60;99.90;;;;;;4814868;29;20058;-92
2022/03/29 01:54:53;;;;;;;38.28;19.85;;;5.50;99.90;;;;;;4811166;29;20042;-92
2022/03/29 01:57:26;;;;;;;36.28;19.85;;;5.50;99.90;;;;;;4810601;29;20075;-92
2022/03/29 02:02:36;;;;;;;39.47;20.42;;;5.50;99.90;;;;;;4826589;29;20091;-92
2022/03/29 02:05:02;;;;;;;41.13;20.30;;;5.40;99.90;;;;;;4810169;29;20042;-93
2022/03/29 02:07:27;;;;;;;43.83;21.52;;;5.40;99.90;;;;;;4825568;29;20030;-91
2022/03/29 02:09:53;;;;;;;45.45;22.40;;;5.40;99.90;;;;;;4808966;29;20034;-91
2022/03/29 02:12:19;;;;;;;42.33;22.02;;;5.40;99.90;;;;;;4809504;29;20033;-91
2022/03/29 02:14:44;;;;;;;43.08;21.50;;;5.30;99.90;;;;;;4809328;29;20046;-92
2022/03/29 02:17:10;;;;;;;38.35;18.90;;;5.40;99.90;;;;;;4810028;29;20034;-91
2022/03/29 02:19:36;;;;;;;36.42;18.63;;;5.30;99.90;;;;;;4809789;29;20042;-92
2022/03/29 02:22:01;;;;;;;39.72;19.40;;;5.20;99.90;;;;;;4809859;29;20053;-92
2022/03/29 02:24:27;;;;;;;38.72;20.20;;;5.20;99.90;;;;;;4809272;29;20039;-91
2022/03/29 02:26:53;;;;;;;40.30;20.00;;;5.10;99.90;;;;;;4810017;29;20034;-91
2022/03/29 02:29:18;;;;;;;37.70;20.10;;;5.10;99.90;;;;;;4810600;29;20062;-90
2022/03/29 02:31:44;;;;;;;42.58;20.30;;;5.10;99.90;;;;;;4813200;29;20115;-91
2022/03/29 02:34:10;;;;;;;41.95;20.60;;;5.10;99.90;;;;;;4813083;29;20026;-91
2022/03/29 02:36:35;;;;;;;43.28;20.38;;;5.00;99.90;;;;;;4812995;29;20428;-91
2022/03/29 02:39:01;;;;;;;35.30;20.08;;;5.00;99.90;;;;;;4812459;29;20026;-90
2022/03/29 02:41:27;;;;;;;41.55;19.95;;;4.90;99.90;;;;;;4829008;29;20034;-91
2022/03/29 02:43:52;;;;;;;38.97;20.77;;;5.00;99.90;;;;;;4812759;29;20068;-91
2022/03/29 02:46:19;;;;;;;38.35;19.75;;;5.00;99.90;;;;;;4812853;29;20066;-91
2022/03/29 02:48:45;;;;;;;39.85;20.30;;;5.00;99.90;;;;;;4829169;29;20026;-91
2022/03/29 02:51:11;;;;;;;43.95;21.60;;;5.00;99.90;;;;;;4812413;29;20103;-91
2022/03/29 02:53:36;;;;;;;40.63;20.25;;;4.90;99.90;;;;;;4797200;29;20137;-91
2022/03/29 02:56:02;;;;;;;47.50;20.88;;;4.90;99.90;;;;;;4812153;29;20042;-90
2022/03/29 02:58:28;;;;;;;41.55;22.27;;;4.90;99.90;;;;;;4828341;29;20037;-90
2022/03/29 03:00:53;;;;;;;38.80;20.33;;;4.90;99.90;;;;;;4812391;29;20041;-90
2022/03/29 03:03:19;;;;;;;50.20;23.25;;;4.90;99.90;;;;;;4811836;29;20058;-90
2022/03/29 03:05:46;;;;;;;59.40;25.10;;;5.00;99.90;;;;;;4812061;29;20046;-90
2022/03/29 03:08:13;;;;;;;44.22;20.70;;;4.90;99.90;;;;;;4812043;29;20031;-90
2022/03/29 03:10:39;;;;;;;49.92;23.50;;;5.00;99.90;;;;;;4818501;29;20050;-91
2022/03/29 03:13:04;;;;;;;41.97;22.17;;;4.90;99.90;;;;;;4813517;29;20030;-91
2022/03/29 03:15:30;;;;;;;38.75;19.45;;;4.90;99.90;;;;;;4811409;29;20043;-91
2022/03/29 03:17:58;;;;;;;38.67;19.67;;;4.90;99.90;;;;;;4813938;29;20030;-91
2022/03/29 03:20:24;;;;;;;41.70;19.90;;;4.90;99.90;;;;;;4813417;29;20094;-92
2022/03/29 03:22:51;;;;;;;40.40;21.08;;;4.90;99.90;;;;;;4812837;29;20473;-92
2022/03/29 03:25:17;;;;;;;43.75;21.10;;;4.90;99.90;;;;;;4815012;29;20030;-90
2022/03/29 03:27:42;;;;;;;42.58;20.55;;;4.80;99.90;;;;;;4847250;29;20027;-91
2022/03/29 03:30:14;;;;;;;42.70;21.90;;;4.70;99.90;;;;;;4846637;29;20084;-91
2022/03/29 03:32:41;;;;;;;43.72;21.23;;;4.60;99.90;;;;;;4828081;29;20015;-89
2022/03/29 03:35:07;;;;;;;44.25;20.67;;;4.60;99.90;;;;;;4833005;29;20050;-91
2022/03/29 03:37:35;;;;;;;46.60;22.10;;;4.50;99.90;;;;;;4832343;29;20030;-90
2022/03/29 03:40:04;;;;;;;58.08;25.38;;;4.40;99.90;;;;;;4813241;29;20062;-92
2022/03/29 03:42:30;;;;;;;51.17;24.02;;;4.40;99.90;;;;;;4818896;29;20059;-91
2022/03/29 03:44:57;;;;;;;57.15;26.15;;;4.40;99.90;;;;;;4813782;29;20109;-91
2022/03/29 03:47:27;;;;;;;44.28;21.48;;;4.40;99.90;;;;;;4812059;29;20072;-91
2022/03/29 03:49:53;;;;;;;47.45;22.05;;;4.30;99.90;;;;;;4811270;29;20079;-91
2022/03/29 03:52:18;;;;;;;47.05;22.42;;;4.30;99.90;;;;;;4827592;29;20071;-91
2022/03/29 03:54:45;;;;;;;48.72;21.55;;;4.30;99.90;;;;;;4811307;29;20030;-91
2022/03/29 03:57:10;;;;;;;42.90;20.88;;;4.20;99.90;;;;;;4827280;29;20073;-92
2022/03/29 03:59:37;;;;;;;40.83;20.60;;;4.20;99.90;;;;;;4827291;29;20034;-92
2022/03/29 04:02:06;;;;;;;44.72;22.40;;;4.20;99.90;;;;;;4811525;29;20035;-91
2022/03/29 04:04:31;;;;;;;47.13;22.15;;;4.20;99.90;;;;;;4827902;29;20058;-92
2022/03/29 04:06:57;;;;;;;52.05;24.25;;;4.20;99.90;;;;;;4812263;29;20026;-92
2022/03/29 04:09:24;;;;;;;55.42;25.15;;;4.10;99.90;;;;;;4828252;29;20035;-92
2022/03/29 04:11:51;;;;;;;48.97;22.08;;;4.10;99.90;;;;;;4828113;29;20087;-92
2022/03/29 04:14:16;;;;;;;48.05;23.25;;;4.10;99.90;;;;;;4828977;29;20109;-92
2022/03/29 04:16:42;;;;;;;49.70;22.90;;;4.20;99.90;;;;;;4828546;29;20041;-92
2022/03/29 04:19:10;;;;;;;45.95;21.33;;;4.20;99.90;;;;;;4828815;29;20042;-91
2022/03/29 04:21:36;;;;;;;41.85;20.38;;;4.20;99.90;;;;;;4813148;29;20060;-92
2022/03/29 04:24:02;;;;;;;47.45;21.95;;;4.20;99.90;;;;;;4815070;29;20431;-91
2022/03/29 04:26:29;;;;;;;49.38;21.80;;;4.20;99.90;;;;;;4814784;29;20022;-91
2022/03/29 04:28:55;;;;;;;48.78;22.23;;;4.20;99.90;;;;;;4814493;29;20454;-91
2022/03/29 04:31:22;;;;;;;117.18;23.23;;;4.20;99.90;;;;;;4820481;29;20019;-91
2022/03/29 04:33:47;;;;;;;68.82;19.90;;;4.20;99.90;;;;;;4830773;29;20038;-90
2022/03/29 04:36:23;;;;;;;188.25;25.15;;;4.10;99.90;;;;;;4827510;29;20102;-91
2022/03/29 04:38:49;;;;;;;61.45;22.42;;;4.10;99.90;;;;;;4831144;29;20021;-90
2022/03/29 04:41:14;;;;;;;144.75;24.67;;;4.00;99.90;;;;;;4824435;29;20035;-90
2022/03/29 04:43:40;;;;;;;72.20;23.33;;;4.00;99.90;;;;;;4816058;29;20030;-90
2022/03/29 04:46:07;;;;;;;87.68;19.60;;;3.90;99.90;;;;;;4799810;29;20114;-90
2022/03/29 04:48:32;;;;;;;55.45;22.17;;;3.90;99.90;;;;;;4814732;29;20038;-90
2022/03/29 04:50:58;;;;;;;47.33;21.55;;;3.90;99.90;;;;;;4813644;29;20041;-92
2022/03/29 04:53:24;;;;;;;55.42;21.40;;;3.90;99.90;;;;;;4825222;29;20033;-90
2022/03/29 04:55:50;;;;;;;47.72;19.45;;;3.90;99.90;;;;;;4831197;29;20072;-92
2022/03/29 04:58:17;;;;;;;49.63;18.33;;;3.90;99.90;;;;;;4829151;29;20046;-92
2022/03/29 05:00:43;;;;;;;37.72;18.05;;;3.90;99.90;;;;;;4823267;29;20038;-91
2022/03/29 05:03:08;;;;;;;39.33;18.40;;;3.90;99.90;;;;;;4819967;29;20030;-92
2022/03/29 05:05:35;;;;;;;37.35;19.05;;;3.90;99.90;;;;;;4816823;29;20493;-89
2022/03/29 05:08:00;;;;;;;35.35;18.27;;;3.80;99.90;;;;;;4816570;29;20038;-91
2022/03/29 05:10:26;;;;;;;45.78;20.60;;;3.70;99.90;;;;;;4813485;29;20477;-92
2022/03/29 05:12:52;;;;;;;39.88;18.38;;;3.70;99.90;;;;;;4811726;29;20110;-90
2022/03/29 05:15:19;;;;;;;35.50;17.90;;;3.70;99.90;;;;;;4810809;29;20521;-91
2022/03/29 05:17:46;;;;;;;36.08;18.52;;;3.70;99.90;;;;;;4795833;29;20026;-90
2022/03/29 05:20:13;;;;;;;58.42;18.25;;;3.80;99.90;;;;;;4810472;29;20030;-91
2022/03/29 05:22:51;;;;;;;36.25;17.05;;;3.70;99.90;;;;;;4811171;29;20056;-90
2022/03/29 05:25:18;;;;;;;32.67;18.02;;;3.70;99.90;;;;;;4809568;29;20043;-92
2022/03/29 05:27:44;;;;;;;38.88;19.05;;;3.60;99.90;;;;;;4811305;29;20080;-90
2022/03/29 05:30:11;;;;;;;37.85;18.10;;;3.60;99.90;;;;;;4811299;29;20142;-91
2022/03/29 05:32:38;;;;;;;38.33;19.17;;;3.60;99.90;;;;;;4810541;29;20111;-91
2022/03/29 05:35:07;;;;;;;42.05;19.90;;;3.60;99.90;;;;;;4810244;29;20091;-91
2022/03/29 05:37:32;;;;;;;45.83;20.73;;;3.70;99.90;;;;;;4810157;29;20127;-91
2022/03/29 05:39:58;;;;;;;38.53;18.67;;;3.70;99.90;;;;;;4810149;29;20030;-91
2022/03/29 05:42:24;;;;;;;42.30;19.50;;;3.80;99.90;;;;;;4810250;29;20146;-91
2022/03/29 05:44:50;;;;;;;33.65;17.13;;;3.90;99.90;;;;;;4807267;29;20030;-91
2022/03/29 05:50:00;;;;;;;42.08;19.20;;;4.00;99.90;;;;;;4826763;29;20087;-91
2022/03/29 05:52:26;;;;;;;92.35;23.75;;;4.10;99.90;;;;;;4810224;29;20050;-91
2022/03/29 05:54:51;;;;;;;71.70;23.67;;;4.10;99.90;;;;;;4809889;29;20113;-91
2022/03/29 05:57:19;;;;;;;84.15;24.27;;;4.00;99.90;;;;;;4810029;29;20067;-92
2022/03/29 05:59:46;;;;;;;62.10;22.25;;;4.00;99.90;;;;;;4809540;29;20083;-91
2022/03/29 06:02:12;;;;;;;92.72;22.83;;;4.00;99.90;;;;;;4794758;29;20128;-91
2022/03/29 06:04:39;;;;;;;65.40;21.77;;;3.90;99.90;;;;;;4809855;29;20034;-92
2022/03/29 06:07:05;;;;;;;85.82;20.88;;;3.90;99.90;;;;;;4813283;29;20026;-92
2022/03/29 06:09:32;;;;;;;83.78;23.75;;;3.90;99.90;;;;;;4812859;29;20050;-91
2022/03/29 06:11:58;;;;;;;50.58;20.83;;;3.90;99.90;;;;;;4812976;29;20501;-91
2022/03/29 06:14:24;;;;;;;59.78;22.80;;;3.80;99.90;;;;;;4812982;29;20042;-91
2022/03/29 06:16:50;;;;;;;132.30;22.13;;;3.90;99.90;;;;;;4813008;29;20481;-92
2022/03/29 06:19:16;;;;;;;65.15;21.67;;;3.90;99.90;;;;;;4813128;29;20552;-91
2022/03/29 06:21:42;;;;;;;116.40;23.42;;;3.90;99.90;;;;;;4813042;29;20035;-91
2022/03/29 06:24:09;;;;;;;118.30;22.35;;;3.90;99.90;;;;;;4812490;29;20036;-92
2022/03/29 06:26:39;;;;;;;51.40;21.45;;;3.90;99.90;;;;;;4812882;29;20545;-91
2022/03/29 06:29:08;;;;;;;73.07;23.02;;;3.90;99.90;;;;;;4810112;29;20459;-92
2022/03/29 06:31:36;;;;;;;76.38;21.50;;;4.00;99.90;;;;;;4813367;29;20026;-92
2022/03/29 06:34:02;;;;;;;84.32;22.08;;;3.90;99.90;;;;;;4828944;29;20173;-92
2022/03/29 06:36:29;;;;;;;91.63;25.33;;;4.00;99.90;;;;;;4822049;29;20046;-93
2022/03/29 06:38:55;;;;;;;96.25;22.05;;;4.00;99.90;;;;;;4798662;29;20034;-91
2022/03/29 06:41:22;;;;;;;79.35;21.08;;;4.00;99.90;;;;;;4826338;29;20027;-92
2022/03/29 06:43:48;;;;;;;174.65;22.65;;;4.00;99.90;;;;;;4820262;29;20034;-92
2022/03/29 06:46:14;;;;;;;50.35;21.15;;;4.00;99.90;;;;;;4831822;29;20030;-92
2022/03/29 06:48:41;;;;;;;59.85;22.33;;;4.10;99.90;;;;;;4812784;29;20833;-92
2022/03/29 06:51:12;;;;;;;73.00;22.08;;;4.10;99.90;;;;;;4813426;29;20030;-92
2022/03/29 06:53:40;;;;;;;57.10;21.88;;;4.10;99.90;;;;;;4813601;29;20038;-91
2022/03/29 06:56:07;;;;;;;48.58;20.45;;;4.20;99.90;;;;;;4814332;29;20505;-92
2022/03/29 06:58:37;;;;;;;67.65;21.42;;;4.30;99.90;;;;;;4813581;29;20033;-91
2022/03/29 07:01:04;;;;;;;72.80;20.67;;;4.30;99.90;;;;;;4813004;29;20046;-92
2022/03/29 07:03:30;;;;;;;34.63;15.98;;;4.40;99.90;;;;;;4813940;29;20095;-92
2022/03/29 07:05:58;;;;;;;33.40;15.30;;;4.40;99.90;;;;;;4820106;29;20046;-92
2022/03/29 07:08:25;;;;;;;26.52;14.75;;;4.30;99.90;;;;;;4832337;29;20049;-92
2022/03/29 07:13:35;;;;;;;27.48;14.63;;;4.40;99.90;;;;;;4829673;29;20057;-92
2022/03/29 07:16:01;;;;;;;24.50;14.45;;;4.50;99.90;;;;;;4814017;29;20042;-92
2022/03/29 07:18:27;;;;;;;22.80;13.23;;;4.60;99.90;;;;;;4813201;29;20112;-92
2022/03/29 07:20:53;;;;;;;24.90;12.95;;;4.90;99.90;;;;;;4813591;29;20030;-92
2022/03/29 07:23:18;;;;;;;22.00;12.85;;;4.90;99.90;;;;;;4812847;29;20034;-91
2022/03/29 07:25:44;;;;;;;22.02;12.45;;;5.00;99.90;;;;;;4812357;29;20091;-93
2022/03/29 07:28:11;;;;;;;23.77;13.07;;;5.10;99.90;;;;;;4812504;29;20073;-91
2022/03/29 07:30:41;;;;;;;23.58;12.80;;;5.30;99.90;;;;;;4812140;29;20528;-92
2022/03/29 07:33:09;;;;;;;30.17;15.60;;;5.40;99.90;;;;;;4812181;29;20069;-93
2022/03/29 07:35:34;;;;;;;27.85;14.80;;;5.50;99.90;;;;;;4826846;29;20042;-93
2022/03/29 07:38:02;;;;;;;28.05;14.07;;;5.50;99.90;;;;;;4812941;29;20405;-93
2022/03/29 07:40:30;;;;;;;27.88;15.25;;;5.60;99.90;;;;;;4812549;29;20517;-91
2022/03/29 07:42:56;;;;;;;30.60;15.02;;;5.70;99.90;;;;;;4812568;29;20030;-92
2022/03/29 07:45:23;;;;;;;25.45;13.77;;;5.60;99.90;;;;;;4812963;29;20034;-92
2022/03/29 07:47:52;;;;;;;27.90;14.98;;;5.60;99.90;;;;;;4812490;29;20030;-92
2022/03/29 07:50:19;;;;;;;30.85;15.23;;;5.70;99.90;;;;;;4808532;29;20039;-94
2022/03/29 07:52:44;;;;;;;28.38;14.50;;;5.70;99.90;;;;;;4816197;29;20062;-92
2022/03/29 07:55:12;;;;;;;29.15;14.75;;;5.70;99.90;;;;;;4816254;29;20039;-93
2022/03/29 07:57:40;;;;;;;26.63;14.05;;;5.70;99.90;;;;;;4830859;29;20038;-93
2022/03/29 08:02:55;;;;;;;32.67;15.98;;;5.70;99.90;;;;;;4848433;29;20030;-93
2022/03/29 08:05:22;;;;;;;31.30;15.88;;;5.70;99.90;;;;;;4816490;29;20046;-92
2022/03/29 08:07:48;;;;;;;32.53;16.65;;;5.70;99.90;;;;;;4832395;29;20090;-93
2022/03/29 08:10:14;;;;;;;36.50;16.05;;;5.80;99.90;;;;;;4831203;29;20026;-93
2022/03/29 08:12:41;;;;;;;33.03;15.40;;;5.80;99.90;;;;;;4822434;29;20082;-93
2022/03/29 08:15:08;;;;;;;31.17;15.95;;;5.90;99.90;;;;;;4820133;29;20042;-92
2022/03/29 08:17:34;;;;;;;41.45;16.65;;;5.90;99.90;;;;;;4817746;29;20449;-93
2022/03/29 08:20:01;;;;;;;33.67;16.25;;;6.00;99.90;;;;;;4812593;29;20046;-92
2022/03/29 08:22:27;;;;;;;35.28;16.95;;;6.00;99.90;;;;;;4805398;29;20481;-93
2022/03/29 08:24:54;;;;;;;41.35;16.75;;;6.00;99.90;;;;;;4815205;29;20095;-93
2022/03/29 08:27:19;;;;;;;38.42;17.80;;;6.00;99.90;;;;;;4830266;29;20040;-93
2022/03/29 08:29:47;;;;;;;37.55;17.33;;;6.00;99.90;;;;;;4827889;29;20046;-92
2022/03/29 08:32:13;;;;;;;30.40;16.23;;;6.10;99.90;;;;;;4817182;29;20031;-91
2022/03/29 08:51:46;;;;;;;29.70;16.70;;;7.10;99.90;;;;;;5675438;24;20149;-92
2022/03/29 08:54:12;;;;;;;26.67;15.20;;;7.30;99.90;;;;;;4837785;29;20062;-93
2022/03/29 08:56:42;;;;;;;26.02;13.95;;;7.50;99.90;;;;;;4851338;29;20072;-92
2022/03/29 08:59:08;;;;;;;23.00;12.57;;;7.60;99.90;;;;;;4842834;29;20244;-93
2022/03/29 09:01:35;;;;;;;27.45;14.27;;;7.90;99.90;;;;;;4838723;29;20126;-93
2022/03/29 09:04:11;;;;;;;27.73;15.00;;;8.00;99.90;;;;;;4856309;29;20041;-93
2022/03/29 09:06:56;;;;;;;21.98;12.75;;;8.20;99.90;;;;;;4856372;29;20033;-93
2022/03/29 09:09:30;;;;;;;25.42;13.75;;;8.30;99.90;;;;;;4853285;29;20065;-93
2022/03/29 09:11:59;;;;;;;25.13;13.85;;;8.50;99.90;;;;;;4859325;29;20026;-93
2022/03/29 09:14:29;;;;;;;25.40;13.38;;;8.60;99.90;;;;;;4838968;29;20042;-93
2022/03/29 09:16:55;;;;;;;27.02;14.32;;;8.70;99.90;;;;;;4837595;29;20135;-93
2022/03/29 09:19:23;;;;;;;24.42;13.52;;;8.80;99.90;;;;;;4848156;29;20120;-93
2022/03/29 09:21:51;;;;;;;25.15;13.70;;;8.90;99.90;;;;;;4844168;29;20029;-93
2022/03/29 09:24:22;;;;;;;24.85;13.57;;;9.00;99.90;;;;;;4846012;29;20033;-93
2022/03/29 09:26:54;;;;;;;24.00;12.93;;;9.10;99.90;;;;;;4835710;29;20037;-94
2022/03/29 09:29:24;;;;;;;24.05;13.07;;;9.10;99.90;;;;;;4835166;29;20026;-93
2022/03/29 09:32:06;;;;;;;22.80;13.10;;;9.20;99.90;;;;;;4835424;29;20030;-93
2022/03/29 09:34:38;;;;;;;22.50;11.60;;;9.40;99.90;;;;;;4852047;29;20038;-94
2022/03/29 09:37:05;;;;;;;22.98;12.00;;;9.50;99.90;;;;;;4855255;29;20030;-93
2022/03/29 09:39:35;;;;;;;20.50;11.07;;;9.60;99.90;;;;;;4840691;29;20037;-93
2022/03/29 09:42:11;;;;;;;22.88;12.50;;;9.70;99.90;;;;;;4834057;29;20044;-93
2022/03/29 09:44:45;;;;;;;19.75;10.80;;;9.80;99.90;;;;;;4851232;29;20029;-94
2022/03/29 09:47:29;;;;;;;22.83;12.02;;;9.90;99.90;;;;;;4836177;29;20040;-94
2022/03/29 10:18:39;;;;;;;39.10;18.13;;;11.80;99.90;;;;;;5644339;23;20165;-94
2022/03/29 10:21:06;;;;;;;42.13;19.10;;;11.90;99.90;;;;;;4791405;29;20513;-95
2022/03/29 10:23:35;;;;;;;42.53;19.95;;;11.90;99.90;;;;;;4810638;29;20043;-95
2022/03/29 10:26:01;;;;;;;44.03;20.90;;;12.00;99.90;;;;;;4809895;29;20086;-95
2022/03/29 10:28:28;;;;;;;43.92;20.92;;;12.20;99.90;;;;;;4809527;29;20031;-95
2022/03/29 10:30:55;;;;;;;48.78;23.23;;;12.20;99.90;;;;;;4804275;29;20417;-94
2022/03/29 10:33:26;;;;;;;47.75;23.60;;;12.20;99.90;;;;;;4792179;29;20034;-95
2022/03/29 10:36:12;;;;;;;46.60;22.23;;;12.20;99.90;;;;;;4807498;29;20042;-94
2022/03/29 10:38:47;;;;;;;48.10;21.05;;;12.20;99.90;;;;;;4787064;29;20041;-95
2022/03/29 10:42:00;;;;;;;48.35;23.25;;;12.30;99.90;;;;;;4808645;29;20039;-94
2022/03/29 10:44:58;;;;;;;46.70;19.95;;;12.20;99.90;;;;;;4718578;30;20029;-93
2022/03/29 10:47:28;;;;;;;50.35;21.48;;;12.10;99.90;;;;;;4736294;30;20087;-94
2022/03/29 10:49:54;;;;;;;;;;;12.10;99.90;;;;;;4729977;30;20044;-94
2022/03/29 10:52:27;;;;;;;51.67;21.60;;;12.10;99.90;;;;;;4758916;30;19922;-94
2022/03/29 10:55:16;;;;;;;50.85;21.92;;;12.00;99.90;;;;;;4756885;30;20048;-94
2022/03/29 10:58:03;;;;;;;56.20;23.23;;;12.00;99.90;;;;;;4757005;30;20302;-95
2022/03/29 11:00:31;;;;;;;61.15;24.15;;;12.10;99.90;;;;;;4751575;30;20024;-94
2022/03/29 11:03:10;;;;;;;58.22;24.95;;;12.20;99.90;;;;;;4743494;30;20029;-95
2022/03/29 11:06:11;;;;;;;55.22;24.27;;;12.50;99.90;;;;;;4706756;30;20068;-95
2022/03/29 11:08:41;;;;;;;50.60;21.90;;;13.00;99.90;;;;;;4695891;30;20034;-95
2022/03/29 11:11:28;;;;;;;57.90;21.77;;;13.60;99.90;;;;;;4696475;30;20045;-95
2022/03/29 11:13:54;;;;;;;48.72;20.25;;;13.80;99.80;;;;;;4705336;30;20111;-94
2022/03/29 11:16:28;;;;;;;49.20;20.92;;;13.70;98.00;;;;;;4687579;30;20105;-94
2022/03/29 11:18:54;;;;;;;54.63;22.52;;;13.50;97.90;;;;;;4741477;30;20048;-94
2022/03/29 11:21:38;;;;;;;57.88;22.55;;;13.30;97.40;;;;;;4741578;30;20044;-95
2022/03/29 11:24:06;;;;;;;51.35;22.65;;;13.10;97.50;;;;;;4751047;30;20044;-95
2022/03/29 11:26:35;;;;;;;53.20;22.80;;;13.00;97.70;;;;;;4752224;30;20072;-94
2022/03/29 11:29:03;;;;;;;47.58;21.30;;;12.80;97.30;;;;;;4746025;30;20055;-94
2022/03/29 11:31:39;;;;;;;48.88;18.92;;;12.60;97.90;;;;;;4760347;30;20107;-94
2022/03/29 11:34:09;;;;;;;53.22;22.58;;;12.60;98.30;;;;;;4747401;30;20104;-94
2022/03/29 11:36:37;;;;;;;49.47;20.58;;;12.60;98.30;;;;;;4774089;29;20114;-94
2022/03/29 11:39:23;;;;;;;46.88;20.85;;;12.50;98.30;;;;;;4800437;29;20046;-94
2022/03/29 11:41:49;;;;;;;52.85;22.52;;;12.40;98.40;;;;;;4813761;29;20046;-95
2022/03/29 11:44:21;;;;;;;50.65;22.58;;;12.30;98.40;;;;;;4814365;29;20039;-95
2022/03/29 11:46:56;;;;;;;50.47;21.60;;;12.20;98.50;;;;;;4794889;29;20163;-94
2022/03/29 11:49:26;;;;;;;53.45;23.45;;;12.10;98.50;;;;;;4794852;29;20054;-95
2022/03/29 11:52:14;;;;;;;49.28;22.23;;;12.10;98.90;;;;;;4795643;29;20031;-94
2022/03/29 11:54:48;;;;;;;47.95;21.63;;;12.10;98.90;;;;;;4794418;29;20042;-93
2022/03/29 11:57:23;;;;;;;51.53;22.38;;;12.10;99.00;;;;;;4806476;29;20035;-95
2022/03/29 11:59:49;;;;;;;49.90;21.00;;;12.20;99.10;;;;;;4813680;29;20138;-95
2022/03/29 12:02:18;;;;;;;46.90;20.67;;;12.20;99.10;;;;;;4794803;29;20036;-95
2022/03/29 12:04:45;;;;;;;50.05;20.52;;;12.30;98.90;;;;;;4814144;29;20034;-95
2022/03/29 12:07:10;;;;;;;50.55;21.40;;;12.30;98.70;;;;;;4785716;29;20106;-95
2022/03/29 12:09:36;;;;;;;51.60;21.95;;;12.20;98.50;;;;;;4811560;29;20065;-94
2022/03/29 12:12:03;;;;;;;56.92;20.75;;;12.10;98.40;;;;;;4793725;29;20027;-95
2022/03/29 12:14:31;;;;;;;57.25;22.40;;;12.00;98.40;;;;;;4793896;29;20100;-95
2022/03/29 12:17:03;;;;;;;55.88;20.90;;;11.80;98.60;;;;;;4793127;29;20051;-95
2022/03/29 12:19:31;;;;;;;56.13;23.02;;;11.70;99.00;;;;;;4791479;29;20409;-95
2022/03/29 12:21:59;;;;;;;57.67;21.77;;;11.70;99.20;;;;;;4809626;29;20035;-95
2022/03/29 12:24:27;;;;;;;55.42;22.10;;;11.60;99.20;;;;;;4793649;29;20034;-94
2022/03/29 12:26:57;;;;;;;51.80;20.48;;;11.50;99.30;;;;;;4813631;29;20504;-94
2022/03/29 12:29:25;;;;;;;49.30;20.58;;;11.40;99.60;;;;;;4816948;29;20038;-95
2022/03/29 12:31:53;;;;;;;59.17;21.40;;;11.50;99.90;;;;;;4799766;29;20043;-94
2022/03/29 12:34:29;;;;;;;65.32;23.35;;;11.50;99.80;;;;;;4800317;29;20029;-94
2022/03/29 12:37:00;;;;;;;59.88;22.42;;;11.40;99.80;;;;;;4816133;29;20076;-94
2022/03/29 12:39:40;;;;;;;61.97;23.73;;;11.40;99.90;;;;;;4802903;29;20034;-96
2022/03/29 12:42:16;;;;;;;62.42;25.48;;;11.40;99.90;;;;;;4802114;29;20485;-94
2022/03/29 12:44:47;;;;;;;57.25;22.77;;;11.40;99.90;;;;;;4800473;29;20034;-95
2022/03/29 12:47:15;;;;;;;58.60;22.77;;;11.40;99.90;;;;;;4801218;29;20119;-94
2022/03/29 12:49:42;;;;;;;51.40;22.15;;;11.40;99.90;;;;;;4817527;29;20038;-94
2022/03/29 12:52:10;;;;;;;55.42;22.23;;;11.40;99.90;;;;;;4801667;29;20034;-95
2022/03/29 12:54:47;;;;;;;59.75;24.38;;;11.40;99.90;;;;;;4800021;29;20031;-94
2022/03/29 12:57:18;;;;;;;54.22;23.23;;;11.50;99.90;;;;;;4799794;29;20050;-95
2022/03/29 12:59:47;;;;;;;53.85;22.50;;;11.50;99.90;;;;;;4825542;29;20086;-96
2022/03/29 14:17:47;;;;;;;100.93;34.00;;;11.60;99.90;;;;;;5260108;24;20069;-95
2022/03/29 14:20:15;;;;;;;93.78;33.15;;;11.60;99.70;;;;;;5744913;23;21267;-94
2022/03/29 14:22:44;;;;;;;101.07;34.95;;;11.70;99.70;;;;;;4832051;29;20808;-95
2022/03/29 14:25:11;;;;;;;94.03;32.17;;;11.70;99.50;;;;;;4858621;29;20017;-94
2022/03/29 14:27:37;;;;;;;88.78;31.63;;;11.80;99.50;;;;;;4856119;29;20041;-93
2022/03/29 14:30:06;;;;;;;81.03;31.00;;;11.80;99.40;;;;;;4859464;29;20049;-94
2022/03/29 14:32:32;;;;;;;89.68;31.58;;;11.90;99.20;;;;;;4838680;29;20040;-94
2022/03/29 14:35:04;;;;;;;96.82;33.00;;;11.90;99.10;;;;;;4855976;29;20045;-94
2022/03/29 14:37:32;;;;;;;84.80;31.00;;;12.00;98.90;;;;;;4855705;29;20026;-93
2022/03/29 14:40:04;;;;;;;85.10;29.17;;;12.00;98.70;;;;;;4823970;29;20125;-94
2022/03/29 14:42:30;;;;;;;87.63;30.88;;;12.00;98.60;;;;;;4855678;29;20104;-93
2022/03/29 14:44:56;;;;;;;83.25;29.45;;;11.90;98.20;;;;;;4854384;29;20034;-92
2022/03/29 14:47:22;;;;;;;83.63;31.05;;;11.90;98.30;;;;;;4843599;29;20036;-92
2022/03/29 14:49:49;;;;;;;97.53;33.03;;;11.80;98.20;;;;;;4869408;29;20038;-93
2022/03/29 14:52:17;;;;;;;89.07;31.75;;;11.80;98.10;;;;;;4870581;29;20022;-95